createdAt,value
2019-03-04T00:01:18.469Z,99411.02
2019-03-04T00:03:46.904Z,99399.33
2019-03-04T00:06:15.310Z,99394.30
2019-03-04T00:08:43.747Z,99384.33
2019-03-04T00:11:12.159Z,99389.23
2019-03-04T00:13:40.590Z,99381.95
2019-03-04T00:16:08.998Z,99378.58
2019-03-04T00:18:37.436Z,99369.97
2019-03-04T00:21:05.849Z,99366.66
2019-03-04T00:23:34.283Z,99359.84
2019-03-04T00:26:02.699Z,99367.17
2019-03-04T00:28:31.139Z,99368.06
2019-03-04T00:30:59.592Z,99363.29
2019-03-04T00:33:28.080Z,99351.13
2019-03-04T00:35:56.495Z,99356.22
2019-03-04T00:38:24.927Z,99351.59
2019-03-04T00:40:53.345Z,99352.67
2019-03-04T00:43:21.778Z,99353.61
2019-03-04T00:45:50.195Z,99349.88
2019-03-04T00:48:18.632Z,99340.44
2019-03-04T00:50:47.032Z,99327.27
2019-03-04T00:53:15.436Z,99323.44
2019-03-04T00:55:43.879Z,99311.88
2019-03-04T00:58:12.292Z,99309.80
2019-03-04T01:00:40.794Z,99307.28
2019-03-04T01:03:09.199Z,99310.94
2019-03-04T01:05:37.638Z,99303.18
2019-03-04T01:08:06.047Z,99305.62
2019-03-04T01:10:34.482Z,99303.72
2019-03-04T01:13:02.898Z,99302.03
2019-03-04T01:15:31.335Z,99309.89
2019-03-04T01:17:59.738Z,99303.12
2019-03-04T01:20:28.172Z,99311.56
2019-03-04T01:22:56.585Z,99301.13
2019-03-04T01:25:25.024Z,99299.28
2019-03-04T01:27:53.434Z,99298.37
2019-03-04T01:30:23.607Z,99293.09
2019-03-04T01:32:53.158Z,99307.92
2019-03-04T01:35:21.587Z,99295.93
2019-03-04T01:37:49.993Z,99299.36
2019-03-04T01:40:24.622Z,99307.45
2019-03-04T01:42:53.027Z,99309.67
2019-03-04T01:45:21.465Z,99290.09
2019-03-04T01:47:49.877Z,99288.36
2019-03-04T01:50:19.853Z,99268.73
2019-03-04T01:52:48.437Z,99266.45
2019-03-04T01:55:18.606Z,99262.66
2019-03-04T01:57:47.085Z,99268.89
2019-03-04T02:00:23.868Z,99271.44
2019-03-04T02:02:52.276Z,99276.97
2019-03-04T02:05:20.934Z,99260.94
2019-03-04T02:07:49.434Z,99250.56
2019-03-04T02:10:19.190Z,99238.27
2019-03-04T02:12:48.360Z,99246.14
2019-03-04T02:15:20.842Z,99238.53
2019-03-04T02:17:49.454Z,99225.38
2019-03-04T02:20:18.598Z,99210.05
2019-03-04T02:22:47.276Z,99206.39
2019-03-04T02:25:17.730Z,99211.95
2019-03-04T02:27:51.979Z,99203.61
2019-03-04T02:30:22.938Z,99184.03
2019-03-04T02:32:51.370Z,99172.13
2019-03-04T02:35:19.920Z,99172.88
2019-03-04T02:37:48.359Z,99162.70
2019-03-04T02:40:16.772Z,99167.36
2019-03-04T02:42:45.209Z,99161.75
2019-03-04T02:45:18.530Z,99151.97
2019-03-04T02:47:47.652Z,99150.77
2019-03-04T02:50:16.501Z,99143.48
2019-03-04T02:52:45.411Z,99138.13
2019-03-04T02:55:15.862Z,99142.63
2019-03-04T02:57:44.364Z,99137.25
2019-03-04T03:00:19.606Z,99131.73
2019-03-04T03:02:48.114Z,99132.33
2019-03-04T03:05:16.594Z,99141.27
2019-03-04T03:07:45.101Z,99126.81
2019-03-04T03:10:14.555Z,99123.64
2019-03-04T03:12:43.001Z,99113.36
2019-03-04T03:15:14.089Z,99104.44
2019-03-04T03:17:42.595Z,99108.91
2019-03-04T03:20:13.269Z,99091.67
2019-03-04T03:22:41.740Z,99077.95
2019-03-04T03:25:12.365Z,99065.81
2019-03-04T03:27:40.767Z,99059.95
2019-03-04T03:30:18.469Z,99063.67
2019-03-04T03:32:47.077Z,99053.81
2019-03-04T03:35:15.549Z,99053.34
2019-03-04T03:37:44.024Z,99047.89
2019-03-04T03:40:21.848Z,99037.25
2019-03-04T03:42:50.457Z,99035.09
2019-03-04T03:45:19.008Z,99023.65
2019-03-04T03:47:47.495Z,99015.05
2019-03-04T03:50:18.868Z,99007.91
2019-03-04T03:52:47.277Z,99016.52
2019-03-04T03:55:16.726Z,99003.77
2019-03-04T03:57:45.416Z,98997.34
2019-03-04T04:00:26.334Z,98994.84
2019-03-04T04:02:54.817Z,98981.89
2019-03-04T04:05:23.327Z,98984.13
2019-03-04T04:07:51.736Z,98993.24
2019-03-04T04:10:21.109Z,98979.63
2019-03-04T04:12:49.532Z,98982.19
2019-03-04T04:15:19.703Z,98975.39
2019-03-04T04:17:48.186Z,98979.59
2019-03-04T04:20:16.727Z,98980.42
2019-03-04T04:22:45.108Z,98970.72
2019-03-04T04:25:13.784Z,98960.41
2019-03-04T04:27:42.278Z,98946.17
2019-03-04T04:30:16.711Z,98936.41
2019-03-04T04:32:45.119Z,98925.22
2019-03-04T04:35:13.557Z,98937.78
2019-03-04T04:37:42.034Z,98938.20
2019-03-04T04:40:12.791Z,98941.48
2019-03-04T04:42:41.214Z,98942.15
2019-03-04T04:45:10.491Z,98929.86
2019-03-04T04:47:40.044Z,98914.97
2019-03-04T04:50:30.821Z,98906.78
2019-03-04T04:52:59.229Z,98901.63
2019-03-04T04:55:27.675Z,98894.31
2019-03-04T04:57:56.095Z,98893.80
2019-03-04T05:00:24.598Z,98881.25
2019-03-04T05:02:53.077Z,98862.19
2019-03-04T05:05:21.487Z,98839.81
2019-03-04T05:07:49.922Z,98845.27
2019-03-04T05:10:20.552Z,98852.88
2019-03-04T05:12:49.057Z,98853.45
2019-03-04T05:15:17.704Z,98841.67
2019-03-04T05:17:46.143Z,98823.44
2019-03-04T05:20:23.515Z,98797.22
2019-03-04T05:22:51.950Z,98780.84
2019-03-04T05:25:20.359Z,98791.14
2019-03-04T05:27:48.803Z,98804.79
2019-03-04T05:30:21.324Z,98793.13
2019-03-04T05:32:49.770Z,98800.28
2019-03-04T05:35:18.259Z,98783.89
2019-03-04T05:37:46.696Z,98773.92
2019-03-04T05:40:19.274Z,98769.93
2019-03-04T05:42:47.698Z,98759.00
2019-03-04T05:45:19.433Z,98758.53
2019-03-04T05:47:47.874Z,98745.91
2019-03-04T05:50:21.294Z,98734.13
2019-03-04T05:52:49.722Z,98713.17
2019-03-04T05:55:18.132Z,98718.63
2019-03-04T05:57:46.637Z,98716.91
2019-03-04T06:00:24.508Z,98710.85
2019-03-04T06:03:01.321Z,98699.13
2019-03-04T06:05:29.728Z,98695.62
2019-03-04T06:07:59.807Z,98688.39
2019-03-04T06:10:28.217Z,98679.89
2019-03-04T06:12:58.726Z,98679.89
2019-03-04T06:15:26.797Z,98671.40
2019-03-04T06:17:55.238Z,98646.11
2019-03-04T06:20:23.722Z,98635.83
2019-03-04T06:22:52.169Z,98615.64
2019-03-04T06:25:26.085Z,98620.55
2019-03-04T06:27:54.529Z,98591.63
2019-03-04T06:30:25.555Z,98593.34
2019-03-04T06:32:54.018Z,98583.01
2019-03-04T06:35:22.470Z,98572.44
2019-03-04T06:37:50.879Z,98589.36
2019-03-04T06:40:20.457Z,98596.14
2019-03-04T06:42:48.869Z,98604.84
2019-03-04T06:45:20.963Z,98607.80
2019-03-04T06:47:49.372Z,98602.31
2019-03-04T06:50:46.053Z,98593.58
2019-03-04T06:53:23.673Z,98589.52
2019-03-04T06:56:19.691Z,98582.19
2019-03-04T06:58:51.309Z,98574.59
2019-03-04T07:01:22.904Z,98569.44
2019-03-04T07:03:54.147Z,98561.52
2019-03-04T07:06:22.564Z,98563.70
2019-03-04T07:08:54.180Z,98545.94
2019-03-04T07:11:22.589Z,98522.74
2019-03-04T07:13:51.033Z,98518.95
2019-03-04T07:16:19.446Z,98515.92
2019-03-04T07:18:47.854Z,98515.08
2019-03-04T07:21:16.287Z,98504.95
2019-03-04T07:23:44.707Z,98516.41
2019-03-04T07:26:13.145Z,98516.13
2019-03-04T07:28:41.566Z,98505.49
2019-03-04T07:31:09.997Z,98493.79
2019-03-04T07:33:38.398Z,98511.80
2019-03-04T07:36:08.127Z,98497.09
2019-03-04T07:38:45.705Z,98476.66
2019-03-04T07:41:14.211Z,98476.95
2019-03-04T07:43:42.624Z,98468.03
2019-03-04T07:46:11.066Z,98466.12
2019-03-04T07:48:39.480Z,98459.58
2019-03-04T07:51:18.383Z,98443.17
2019-03-04T07:53:46.985Z,98436.33
2019-03-04T07:56:15.488Z,98422.66
2019-03-04T07:58:43.902Z,98412.58
2019-03-04T08:01:12.337Z,98418.59
2019-03-04T08:03:40.812Z,98420.80
2019-03-04T08:06:09.318Z,98433.64
2019-03-04T08:08:38.664Z,98427.89
2019-03-04T08:11:26.754Z,98410.65
2019-03-04T08:14:07.113Z,98387.45
2019-03-04T08:16:36.304Z,98391.34
2019-03-04T08:19:04.904Z,98379.38
2019-03-04T08:21:33.356Z,98372.84
2019-03-04T08:24:01.772Z,98367.40
2019-03-04T08:26:30.205Z,98361.44
2019-03-04T08:28:58.823Z,98347.23
2019-03-04T08:31:27.251Z,98333.34
2019-03-04T08:33:55.668Z,98336.89
2019-03-04T08:36:24.117Z,98310.14
2019-03-04T08:38:52.530Z,98318.92
2019-03-04T08:41:21.042Z,98309.34
2019-03-04T08:43:49.459Z,98308.84
2019-03-04T08:46:17.891Z,98303.66
2019-03-04T08:48:46.304Z,98302.57
2019-03-04T08:51:14.752Z,98288.66
2019-03-04T08:53:43.167Z,98294.67
2019-03-04T08:56:12.425Z,98274.17
2019-03-04T08:58:41.005Z,98268.98
2019-03-04T09:01:09.503Z,98259.67
2019-03-04T09:03:37.926Z,98244.82
2019-03-04T09:06:06.359Z,98225.87
2019-03-04T09:08:34.766Z,98229.50
2019-03-04T09:11:03.204Z,98213.64
2019-03-04T09:13:31.616Z,98212.88
2019-03-04T09:16:00.055Z,98202.36
2019-03-04T09:18:28.546Z,98189.63
2019-03-04T09:20:56.981Z,98188.58
2019-03-04T09:23:25.388Z,98175.30
2019-03-04T09:26:09.118Z,98168.38
2019-03-04T09:28:37.530Z,98167.45
2019-03-04T09:31:05.959Z,98168.99
2019-03-04T09:33:34.441Z,98179.49
2019-03-04T09:36:03.017Z,98254.34
2019-03-04T09:38:31.421Z,98306.77
2019-03-04T09:40:59.862Z,98341.18
2019-03-04T09:43:28.277Z,98338.99
2019-03-04T09:45:56.719Z,98320.36
2019-03-04T09:48:25.193Z,98323.74
2019-03-04T09:50:53.667Z,98320.48
2019-03-04T09:53:22.093Z,98312.64
2019-03-04T09:55:50.499Z,98302.68
2019-03-04T09:58:18.929Z,98307.21
2019-03-04T10:01:02.569Z,98308.00
2019-03-04T10:03:43.015Z,98312.79
2019-03-04T10:06:26.659Z,98313.80
2019-03-04T10:09:10.271Z,98313.75
2019-03-04T10:11:56.671Z,98319.33
2019-03-04T10:14:40.007Z,98339.34
2019-03-04T10:17:29.692Z,98360.59
2019-03-04T10:23:53.028Z,98382.38
2019-03-04T10:26:33.425Z,98370.55
2019-03-04T10:29:35.117Z,98373.20
2019-03-04T10:32:06.749Z,98373.66
2019-03-04T10:34:59.374Z,98362.33
2019-03-04T10:37:46.097Z,98364.46
2019-03-04T10:40:37.150Z,98368.27
2019-03-04T10:43:17.725Z,98356.30
2019-03-04T10:45:49.315Z,98374.79
2019-03-04T10:48:17.754Z,98341.25
2019-03-04T10:50:46.172Z,98330.94
2019-03-04T10:53:14.672Z,98345.84
2019-03-04T10:55:43.154Z,98369.81
2019-03-04T10:58:11.579Z,98372.02
2019-03-04T11:00:40.525Z,98367.39
2019-03-04T11:03:08.964Z,98351.88
2019-03-04T11:05:37.368Z,98348.13
2019-03-04T11:08:05.876Z,98332.41
2019-03-04T11:10:34.633Z,98338.08
2019-03-04T11:13:03.149Z,98317.25
2019-03-04T11:15:32.124Z,98303.66
2019-03-04T11:18:00.534Z,98294.30
2019-03-04T11:20:28.977Z,98280.44
2019-03-04T11:22:57.383Z,98277.17
2019-03-04T11:25:25.887Z,98289.16
2019-03-04T11:27:54.308Z,98279.55
2019-03-04T11:30:27.453Z,98271.34
2019-03-04T11:32:55.861Z,98275.22
2019-03-04T11:35:24.368Z,98289.72
2019-03-04T11:37:52.778Z,98289.16
2019-03-04T11:40:28.605Z,98306.59
2019-03-04T11:42:57.160Z,98299.97
2019-03-04T11:45:25.666Z,98308.67
2019-03-04T11:47:54.072Z,98287.64
2019-03-04T11:50:22.581Z,98281.09
2019-03-04T11:52:51.163Z,98275.66
2019-03-04T11:55:25.302Z,98289.56
2019-03-04T11:57:53.707Z,98271.57
2019-03-04T12:00:25.938Z,98272.41
2019-03-04T12:02:54.341Z,98264.77
2019-03-04T12:05:22.788Z,98256.31
2019-03-04T12:07:51.187Z,98265.09
2019-03-04T12:10:19.638Z,98263.17
2019-03-04T12:12:48.112Z,98250.10
2019-03-04T12:15:20.719Z,98240.00
2019-03-04T12:17:49.131Z,98232.91
2019-03-04T12:20:17.703Z,98233.44
2019-03-04T12:22:46.112Z,98223.63
2019-03-04T12:25:17.743Z,98216.75
2019-03-04T12:27:46.149Z,98193.76
2019-03-04T12:30:27.618Z,98189.11
2019-03-04T12:32:56.034Z,98189.91
2019-03-04T12:35:24.550Z,98187.69
2019-03-04T12:37:53.025Z,98188.83
2019-03-04T12:40:22.908Z,98185.63
2019-03-04T12:42:51.386Z,98204.48
2019-03-04T12:45:22.032Z,98198.74
2019-03-04T12:47:50.509Z,98198.74
2019-03-04T12:50:26.589Z,98178.53
2019-03-04T12:52:55.837Z,98196.30
2019-03-04T12:55:24.345Z,98196.00
2019-03-04T12:57:52.756Z,98178.77
2019-03-04T13:00:29.671Z,98219.83
2019-03-04T13:02:58.321Z,98222.72
2019-03-04T13:05:26.834Z,98241.00
2019-03-04T13:07:55.306Z,98292.42
2019-03-04T13:10:23.764Z,98335.86
2019-03-04T13:12:52.152Z,98368.03
2019-03-04T13:15:23.491Z,98339.23
2019-03-04T13:17:51.937Z,98314.13
2019-03-04T13:20:25.764Z,98311.07
2019-03-04T13:22:54.196Z,98317.84
2019-03-04T13:25:22.674Z,98311.66
2019-03-04T13:27:51.175Z,98311.66
2019-03-04T13:30:24.342Z,98325.63
2019-03-04T13:32:52.839Z,98325.63
2019-03-04T13:35:35.384Z,98322.31
2019-03-04T13:38:03.888Z,98312.56
2019-03-04T13:40:32.704Z,98325.06
2019-03-04T13:43:01.200Z,98324.87
2019-03-04T13:45:29.875Z,98323.18
2019-03-04T13:47:58.305Z,98331.76
2019-03-04T13:50:35.274Z,98335.16
2019-03-04T13:53:03.705Z,98338.52
2019-03-04T13:55:32.191Z,98352.59
2019-03-04T13:58:00.619Z,98349.62
2019-03-04T14:00:40.720Z,98350.33
2019-03-04T14:03:09.226Z,98351.16
2019-03-04T14:05:37.700Z,98338.99
2019-03-04T14:08:06.197Z,98356.55
2019-03-04T14:10:36.947Z,98358.24
2019-03-04T14:13:05.442Z,98355.35
2019-03-04T14:15:40.705Z,98360.27
2019-03-04T14:18:09.207Z,98365.07
2019-03-04T14:20:37.679Z,98371.86
2019-03-04T14:23:06.349Z,98364.88
2019-03-04T14:25:34.822Z,98363.19
2019-03-04T14:28:03.333Z,98369.95
2019-03-04T14:30:32.242Z,98365.73
2019-03-04T14:33:00.672Z,98370.13
2019-03-04T14:35:29.157Z,98377.58
2019-03-04T14:37:57.604Z,98389.17
2019-03-04T14:40:26.008Z,98384.66
2019-03-04T14:42:55.288Z,98391.45
2019-03-04T14:45:25.736Z,98396.02
2019-03-04T14:47:54.332Z,98410.97
2019-03-04T14:50:22.965Z,98404.10
2019-03-04T14:52:51.403Z,98402.03
2019-03-04T14:55:23.949Z,98410.73
2019-03-04T14:57:52.377Z,98419.22
2019-03-04T15:00:24.367Z,98421.06
2019-03-04T15:02:52.791Z,98425.98
2019-03-04T15:05:21.269Z,98444.32
2019-03-04T15:07:49.790Z,98438.98
2019-03-04T15:10:18.195Z,98442.28
2019-03-04T15:12:46.604Z,98439.64
2019-03-04T15:15:30.053Z,98445.33
2019-03-04T15:17:58.573Z,98442.30
2019-03-04T15:20:28.322Z,98446.58
2019-03-04T15:22:56.811Z,98444.20
2019-03-04T15:25:30.897Z,98452.92
2019-03-04T15:28:16.816Z,98453.00
2019-03-04T15:30:47.477Z,98453.05
2019-03-04T15:33:18.374Z,98458.38
2019-03-04T15:35:46.037Z,98455.18
2019-03-04T15:38:14.467Z,98459.25
2019-03-04T15:40:42.931Z,98454.31
2019-03-04T15:43:11.332Z,98464.61
2019-03-04T15:45:41.569Z,98477.86
2019-03-04T15:48:09.981Z,98468.30
2019-03-04T15:50:38.482Z,98463.81
2019-03-04T15:53:06.956Z,98469.78
2019-03-04T15:55:35.464Z,98466.73
2019-03-04T15:58:04.005Z,98462.06
2019-03-04T16:00:32.573Z,98460.08
2019-03-04T16:03:00.979Z,98464.83
2019-03-04T16:05:29.499Z,98460.95
2019-03-04T16:08:07.040Z,98459.88
2019-03-04T16:10:31.945Z,98460.33
2019-03-04T16:13:00.377Z,98460.84
2019-03-04T16:15:28.874Z,98443.11
2019-03-04T16:17:57.415Z,98461.63
2019-03-04T16:20:25.915Z,98470.66
2019-03-04T16:22:55.753Z,98476.91
2019-03-04T16:25:24.260Z,98477.73
2019-03-04T16:28:01.760Z,98469.84
2019-03-04T16:30:30.291Z,98463.08
2019-03-04T16:32:58.690Z,98463.67
2019-03-04T16:35:27.195Z,98470.00
2019-03-04T16:37:55.606Z,98462.93
2019-03-04T16:40:24.872Z,98490.02
2019-03-04T16:42:53.346Z,98486.45
2019-03-04T16:45:22.623Z,98497.88
2019-03-04T16:47:51.459Z,98493.18
2019-03-04T16:50:25.680Z,98514.80
2019-03-04T16:52:57.387Z,98480.23
2019-03-04T16:55:25.900Z,98511.45
2019-03-04T16:57:54.752Z,98514.14
2019-03-04T17:00:23.307Z,98523.11
2019-03-04T17:02:51.787Z,98522.16
2019-03-04T17:05:21.093Z,98536.68
2019-03-04T17:07:50.924Z,98529.67
2019-03-04T17:10:21.608Z,98533.30
2019-03-04T17:12:50.016Z,98538.61
2019-03-04T17:15:21.365Z,98555.74
2019-03-04T17:17:50.146Z,98539.60
2019-03-04T17:20:19.019Z,98547.41
2019-03-04T17:22:47.602Z,98560.48
2019-03-04T17:25:18.180Z,98561.64
2019-03-04T17:27:46.658Z,98556.69
2019-03-04T17:30:22.935Z,98569.06
2019-03-04T17:32:51.414Z,98580.15
2019-03-04T17:35:22.249Z,98569.00
2019-03-04T17:37:50.780Z,98591.11
2019-03-04T17:40:27.424Z,98597.14
2019-03-04T17:42:55.901Z,98574.41
2019-03-04T17:45:25.572Z,98609.11
2019-03-04T17:47:54.052Z,98604.81
2019-03-04T17:50:34.072Z,98618.20
2019-03-04T17:53:04.322Z,98611.66
2019-03-04T17:55:32.835Z,98611.66
2019-03-04T17:58:01.242Z,98606.70
2019-03-04T18:00:30.011Z,98635.22
2019-03-04T18:02:58.446Z,98622.46
2019-03-04T18:05:26.920Z,98637.41
2019-03-04T18:07:55.354Z,98628.20
2019-03-04T18:10:23.934Z,98637.52
2019-03-04T18:12:54.198Z,98651.27
2019-03-04T18:15:24.915Z,98656.18
2019-03-04T18:17:53.351Z,98642.78
2019-03-04T18:20:21.757Z,98663.75
2019-03-04T18:22:50.195Z,98676.53
2019-03-04T18:25:30.938Z,98676.53
2019-03-04T18:28:05.483Z,98678.97
2019-03-04T18:30:43.114Z,98686.86
2019-03-04T18:33:32.528Z,98694.64
2019-03-04T18:36:15.690Z,98688.64
2019-03-04T18:39:04.792Z,98693.39
2019-03-04T18:41:50.771Z,98694.45
2019-03-04T18:44:31.130Z,98694.45
2019-03-04T18:47:26.810Z,98695.28
2019-03-04T18:49:55.207Z,98717.77
2019-03-04T18:52:23.717Z,98737.22
2019-03-04T18:54:52.133Z,98702.06
2019-03-04T18:57:20.569Z,98702.06
2019-03-04T18:59:48.976Z,98719.22
2019-03-04T19:02:17.406Z,98735.18
2019-03-04T19:04:45.816Z,98734.27
2019-03-04T19:07:14.252Z,98734.27
2019-03-04T19:09:42.725Z,98740.83
2019-03-04T19:12:11.153Z,98740.83
2019-03-04T19:14:39.558Z,98757.94
2019-03-04T19:17:08.063Z,98762.73
2019-03-04T19:19:36.464Z,98762.73
2019-03-04T19:22:04.940Z,98752.16
2019-03-04T19:24:33.434Z,98772.64
2019-03-04T19:27:01.834Z,98782.63
2019-03-04T19:29:30.274Z,98775.31
2019-03-04T19:31:58.687Z,98763.94
2019-03-04T19:34:27.123Z,98789.41
2019-03-04T19:36:55.600Z,98788.92
2019-03-04T19:39:24.032Z,98788.00
2019-03-04T19:41:52.444Z,98797.11
2019-03-04T19:44:20.879Z,98797.11
2019-03-04T19:46:49.350Z,98795.68
2019-03-04T19:49:17.775Z,98803.89
2019-03-04T19:51:46.185Z,98798.02
2019-03-04T19:54:14.629Z,98798.02
2019-03-04T19:56:43.038Z,98817.05
2019-03-04T19:59:11.469Z,98817.05
2019-03-04T20:01:39.936Z,98822.48
2019-03-04T20:04:08.436Z,98835.23
2019-03-04T20:06:37.513Z,98835.88
2019-03-04T20:09:06.682Z,98835.88
2019-03-04T20:11:35.161Z,98820.67
2019-03-04T20:14:03.603Z,98832.88
2019-03-04T20:16:32.017Z,98832.88
2019-03-04T20:19:00.443Z,98838.51
2019-03-04T20:21:28.853Z,98824.38
2019-03-04T20:23:57.255Z,98824.38
2019-03-04T20:26:25.864Z,98838.32
2019-03-04T20:28:54.278Z,98866.91
2019-03-04T20:31:22.712Z,98866.91
2019-03-04T20:33:51.195Z,98845.38
2019-03-04T20:36:19.633Z,98864.67
2019-03-04T20:38:48.205Z,98864.67
2019-03-04T20:41:16.661Z,98873.00
2019-03-04T20:43:45.065Z,98876.50
2019-03-04T20:46:13.495Z,98873.63
2019-03-04T20:48:41.969Z,98848.16
2019-03-04T20:51:10.437Z,98892.02
2019-03-04T20:53:38.818Z,98892.02
2019-03-04T20:56:07.245Z,98903.23
2019-03-04T20:58:35.715Z,98917.76
2019-03-04T21:01:04.497Z,98887.52
2019-03-04T21:03:35.073Z,98887.52
2019-03-04T21:06:03.266Z,98910.07
2019-03-04T21:08:31.746Z,98923.40
2019-03-04T21:11:00.249Z,98923.40
2019-03-04T21:13:35.192Z,98938.25
2019-03-04T21:15:58.950Z,98938.25
2019-03-04T21:18:27.722Z,98938.25
2019-03-04T21:20:57.951Z,98944.74
2019-03-04T21:23:26.455Z,98944.74
2019-03-04T21:26:00.438Z,98948.36
2019-03-04T21:28:37.750Z,98948.86
2019-03-04T21:31:11.789Z,98937.17
2019-03-04T21:33:49.330Z,98937.91
2019-03-04T21:36:41.905Z,98962.31
2019-03-04T21:39:13.160Z,98976.13
2019-03-04T21:41:50.871Z,98983.38
2019-03-04T21:44:31.570Z,98983.38
2019-03-04T21:47:20.668Z,98981.89
2019-03-04T21:49:51.009Z,99000.13
2019-03-04T21:52:37.704Z,98967.91
2019-03-04T21:55:14.900Z,98978.77
2019-03-04T21:57:46.375Z,99003.83
2019-03-04T22:00:21.806Z,98995.15
2019-03-04T22:02:56.402Z,99013.55
2019-03-04T22:05:24.882Z,99014.78
2019-03-04T22:07:53.318Z,99012.35
2019-03-04T22:10:21.792Z,99024.49
2019-03-04T22:12:50.365Z,99027.66
2019-03-04T22:15:18.850Z,99020.74
2019-03-04T22:17:47.246Z,99020.74
2019-03-04T22:20:16.343Z,99010.41
2019-03-04T22:22:44.893Z,99020.95
2019-03-04T22:25:14.536Z,99052.03
2019-03-04T22:27:42.940Z,99037.70
2019-03-04T22:30:19.204Z,99031.66
2019-03-04T22:32:47.715Z,99033.09
2019-03-04T22:35:17.653Z,99033.09
2019-03-04T22:37:46.134Z,99050.59
2019-03-04T22:40:28.468Z,99054.00
2019-03-04T22:42:56.853Z,99042.60
2019-03-04T22:45:25.305Z,99076.34
2019-03-04T22:47:53.687Z,99058.07
2019-03-04T22:50:22.877Z,99081.03
2019-03-04T22:52:51.351Z,99073.91
2019-03-04T22:55:31.441Z,99076.13
2019-03-04T22:57:59.840Z,99052.21
2019-03-04T23:00:53.750Z,99098.52
2019-03-04T23:03:31.194Z,99075.00
2019-03-04T23:06:11.858Z,99098.52
2019-03-04T23:08:40.628Z,99098.52
2019-03-04T23:11:09.070Z,99083.90
2019-03-04T23:13:58.549Z,99107.11
2019-03-04T23:16:31.815Z,99099.20
2019-03-04T23:19:00.220Z,99115.34
2019-03-04T23:21:28.653Z,99108.33
2019-03-04T23:23:57.129Z,99122.29
2019-03-04T23:26:25.582Z,99113.61
2019-03-04T23:28:53.980Z,99106.05
2019-03-04T23:31:22.409Z,99134.03
2019-03-04T23:33:50.812Z,99102.89
2019-03-04T23:36:19.242Z,99100.25
2019-03-04T23:38:47.650Z,99127.94
2019-03-04T23:41:16.083Z,99134.86
2019-03-04T23:43:44.567Z,99142.77
2019-03-04T23:46:12.997Z,99132.21
2019-03-04T23:48:41.482Z,99101.97
2019-03-04T23:51:09.919Z,99131.06
2019-03-04T23:53:38.328Z,99135.08
2019-03-04T23:56:06.759Z,99139.00
2019-03-04T23:58:35.171Z,99145.72
